sensor_id;sensor_type;location;lat;lon;timestamp;temperature;humidity
10231;DHT22;62604;49.432;8.680;2023-03-14T10:51:51;11.90;99.90
10231;DHT22;62604;49.432;8.680;2023-03-14T10:54:21;11.80;99.90
10231;DHT22;62604;49.432;8.680;2023-03-14T10:56:57;11.80;99.90
10231;DHT22;62604;49.432;8.680;2023-03-14T10:59:24;11.90;99.90
10231;DHT22;62604;49.432;8.680;2023-03-14T11:01:57;11.80;99.90
10231;DHT22;62604;49.432;8.680;2023-03-14T11:04:41;11.70;99.90
10231;DHT22;62604;49.432;8.680;2023-03-14T11:07:16;11.60;99.90
10231;DHT22;62604;49.432;8.680;2023-03-14T11:09:49;11.50;99.90
10231;DHT22;62604;49.432;8.680;2023-03-14T11:12:37;11.50;99.90
10231;DHT22;62604;49.432;8.680;2023-03-14T11:15:20;11.50;99.90
10231;DHT22;62604;49.432;8.680;2023-03-14T11:17:59;11.40;99.90
10231;DHT22;62604;49.432;8.680;2023-03-14T11:20:35;11.40;99.90
10231;DHT22;62604;49.432;8.680;2023-03-14T11:23:13;11.30;99.90
10231;DHT22;62604;49.432;8.680;2023-03-14T11:25:45;11.20;99.90
10231;DHT22;62604;49.432;8.680;2023-03-14T11:28:21;11.20;99.90
10231;DHT22;62604;49.432;8.680;2023-03-14T11:30:52;11.20;99.90
10231;DHT22;62604;49.432;8.680;2023-03-14T11:33:24;11.20;99.90
10231;DHT22;62604;49.432;8.680;2023-03-14T11:35:58;11.10;99.90
10231;DHT22;62604;49.432;8.680;2023-03-14T11:38:34;11.10;99.90
10231;DHT22;62604;49.432;8.680;2023-03-14T11:41:09;11.10;99.90
10231;DHT22;62604;49.432;8.680;2023-03-14T11:43:38;11.00;99.90
10231;DHT22;62604;49.432;8.680;2023-03-14T11:46:13;11.00;99.90
10231;DHT22;62604;49.432;8.680;2023-03-14T11:48:47;11.10;99.90
10231;DHT22;62604;49.432;8.680;2023-03-14T11:51:24;11.10;99.90
10231;DHT22;62604;49.432;8.680;2023-03-14T11:54:00;11.00;99.90
10231;DHT22;62604;49.432;8.680;2023-03-14T11:56:33;11.00;99.90
10231;DHT22;62604;49.432;8.680;2023-03-14T11:59:05;11.00;99.90
10231;DHT22;62604;49.432;8.680;2023-03-14T12:01:52;11.10;99.90
10231;DHT22;62604;49.432;8.680;2023-03-14T12:04:30;11.00;99.90
10231;DHT22;62604;49.432;8.680;2023-03-14T12:07:01;11.10;99.90
10231;DHT22;62604;49.432;8.680;2023-03-14T12:09:35;11.10;99.90
10231;DHT22;62604;49.432;8.680;2023-03-14T12:12:05;11.10;99.90
10231;DHT22;62604;49.432;8.680;2023-03-14T12:14:35;11.10;99.90
10231;DHT22;62604;49.432;8.680;2023-03-14T12:17:05;11.10;99.90
10231;DHT22;62604;49.432;8.680;2023-03-14T12:19:36;11.10;99.90
10231;DHT22;62604;49.432;8.680;2023-03-14T12:22:25;11.00;99.90
10231;DHT22;62604;49.432;8.680;2023-03-14T12:25:03;11.00;99.90
10231;DHT22;62604;49.432;8.680;2023-03-14T12:27:45;11.10;99.90
10231;DHT22;62604;49.432;8.680;2023-03-14T12:30:27;11.00;99.50
10231;DHT22;62604;49.432;8.680;2023-03-14T12:36:39;10.80;99.90
10231;DHT22;62604;49.432;8.680;2023-03-14T12:39:23;10.80;99.90
10231;DHT22;62604;49.432;8.680;2023-03-14T12:42:02;10.70;99.90
10231;DHT22;62604;49.432;8.680;2023-03-14T12:44:42;10.70;99.90
10231;DHT22;62604;49.432;8.680;2023-03-14T12:50:16;10.70;99.90
10231;DHT22;62604;49.432;8.680;2023-03-14T12:55:36;10.70;99.90
10231;DHT22;62604;49.432;8.680;2023-03-14T12:58:12;10.50;99.90
10231;DHT22;62604;49.432;8.680;2023-03-14T13:00:42;10.40;99.90
10231;DHT22;62604;49.432;8.680;2023-03-14T13:03:18;10.30;99.90
10231;DHT22;62604;49.432;8.680;2023-03-14T13:05:56;10.00;99.90
10231;DHT22;62604;49.432;8.680;2023-03-14T13:08:36;10.00;99.90
10231;DHT22;62604;49.432;8.680;2023-03-14T13:11:08;9.90;99.90
10231;DHT22;62604;49.432;8.680;2023-03-14T13:13:42;9.90;99.90
10231;DHT22;62604;49.432;8.680;2023-03-14T13:16:16;9.90;99.90
10231;DHT22;62604;49.432;8.680;2023-03-14T13:18:45;10.00;99.90
10231;DHT22;62604;49.432;8.680;2023-03-14T13:21:17;10.20;99.90
10231;DHT22;62604;49.432;8.680;2023-03-14T13:23:57;10.40;99.90
10231;DHT22;62604;49.432;8.680;2023-03-14T13:26:31;10.60;97.90
10231;DHT22;62604;49.432;8.680;2023-03-14T13:29:09;10.90;94.70
10231;DHT22;62604;49.432;8.680;2023-03-14T13:31:37;11.10;91.10
10231;DHT22;62604;49.432;8.680;2023-03-14T13:34:10;11.20;90.80
10231;DHT22;62604;49.432;8.680;2023-03-14T13:36:46;11.20;90.30
10231;DHT22;62604;49.432;8.680;2023-03-14T13:39:23;11.30;90.00
10231;DHT22;62604;49.432;8.680;2023-03-14T13:41:53;11.30;88.30
10231;DHT22;62604;49.432;8.680;2023-03-14T13:44:26;11.30;84.80
10231;DHT22;62604;49.432;8.680;2023-03-14T13:46:57;11.20;83.50
10231;DHT22;62604;49.432;8.680;2023-03-14T13:49:27;11.20;83.20
10231;DHT22;62604;49.432;8.680;2023-03-14T13:51:58;11.40;83.60
10231;DHT22;62604;49.432;8.680;2023-03-14T13:54:31;11.40;83.20
10231;DHT22;62604;49.432;8.680;2023-03-14T13:57:04;11.30;80.30
10231;DHT22;62604;49.432;8.680;2023-03-14T13:59:34;11.10;72.20
10231;DHT22;62604;49.432;8.680;2023-03-14T14:02:12;10.90;71.10
10231;DHT22;62604;49.432;8.680;2023-03-14T14:04:41;10.80;71.10
10231;DHT22;62604;49.432;8.680;2023-03-14T14:07:15;10.70;68.60
10231;DHT22;62604;49.432;8.680;2023-03-14T14:09:46;10.50;65.90
10231;DHT22;62604;49.432;8.680;2023-03-14T14:12:16;10.50;64.70
10231;DHT22;62604;49.432;8.680;2023-03-14T14:14:58;10.50;64.30
10231;DHT22;62604;49.432;8.680;2023-03-14T14:17:31;10.50;63.00
10231;DHT22;62604;49.432;8.680;2023-03-14T14:20:05;10.50;64.00
10231;DHT22;62604;49.432;8.680;2023-03-14T14:22:34;10.70;65.10
10231;DHT22;62604;49.432;8.680;2023-03-14T14:25:04;10.80;65.10
10231;DHT22;62604;49.432;8.680;2023-03-14T14:27:36;10.90;62.20
10231;DHT22;62604;49.432;8.680;2023-03-14T14:30:24;11.20;61.40
10231;DHT22;62604;49.432;8.680;2023-03-14T14:32:52;11.20;57.40
10231;DHT22;62604;49.432;8.680;2023-03-14T14:35:25;11.50;58.10
10231;DHT22;62604;49.432;8.680;2023-03-14T14:37:56;11.80;55.60
10231;DHT22;62604;49.432;8.680;2023-03-14T14:40:25;12.00;55.40
10231;DHT22;62604;49.432;8.680;2023-03-14T14:42:52;12.00;52.90
10231;DHT22;62604;49.432;8.680;2023-03-14T14:45:24;12.30;54.50
10231;DHT22;62604;49.432;8.680;2023-03-14T14:47:57;12.50;53.10
10231;DHT22;62604;49.432;8.680;2023-03-14T14:50:31;12.20;48.40
